Station Historical Data
Daily Summary for January 15, 2017 Units:  English    Metric   Both
« Previous Day
Next Day »
Daily Weekly Monthly Yearly Custom
  High: Low: Average:
Temperature: 31.9 °F 20.0 °F 25.5 °F
Dew Point: 22.8 °F 16.9 °F 19.9 °F
Humidity: 88% 65% 80%
Wind Speed: 8.0mph 0.0mph 1.6mph
Wind Gust: 9.0mph - -
Wind- - WSW
Pressure: 30.47 in 30.39 in -
Precipitation: 0.00 in    
Historical Graphs
 
 
Tabular Data for January 15, 2017
Time Temperature Dew Point Pressure Wind Wind Speed Wind Gust Humidity Rainfall Rate (Hourly)
00:04 24.8 °F 18.6 °F 30.40 in West 2.0 mph 6.0 mph 77% 0.00 in
00:09 24.8 °F 18.6 °F 30.40 in West 3.0 mph 6.0 mph 77% 0.00 in
00:14 24.8 °F 18.9 °F 30.40 in West 3.0 mph 7.0 mph 78% 0.00 in
00:19 24.8 °F 18.9 °F 30.40 in West 3.0 mph 7.0 mph 78% 0.00 in
00:24 24.9 °F 19.0 °F 30.40 in West 1.0 mph 6.0 mph 78% 0.00 in
00:29 24.9 °F 19.0 °F 30.40 in WSW 2.0 mph 8.0 mph 78% 0.00 in
00:34 25.0 °F 19.1 °F 30.40 in West 3.0 mph 7.0 mph 78% 0.00 in
00:39 25.0 °F 19.1 °F 30.40 in WSW 3.0 mph 8.0 mph 78% 0.00 in
00:44 24.9 °F 19.0 °F 30.40 in WSW 3.0 mph 7.0 mph 78% 0.00 in
00:49 24.9 °F 19.0 °F 30.40 in SW 3.0 mph 9.0 mph 78% 0.00 in
00:54 24.9 °F 19.3 °F 30.40 in West 4.0 mph 9.0 mph 79% 0.00 in
00:59 25.0 °F 19.4 °F 30.40 in West 4.0 mph 8.0 mph 79% 0.00 in
01:05 25.0 °F 19.4 °F 30.40 in West 4.0 mph 7.0 mph 79% 0.00 in
01:10 24.9 °F 19.3 °F 30.40 in WSW 4.0 mph 8.0 mph 79% 0.00 in
01:15 25.1 °F 19.5 °F 30.40 in West 4.0 mph 8.0 mph 79% 0.00 in
01:20 25.0 °F 19.4 °F 30.40 in West 7.0 mph 8.0 mph 79% 0.00 in
01:25 25.0 °F 19.4 °F 30.40 in WSW 3.0 mph 9.0 mph 79% 0.00 in
01:30 24.9 °F 19.6 °F 30.40 in WSW 4.0 mph 9.0 mph 80% 0.00 in
01:35 24.8 °F 19.5 °F 30.40 in West 2.0 mph 5.0 mph 80% 0.00 in
01:40 24.6 °F 19.3 °F 30.40 in WSW 3.0 mph 6.0 mph 80% 0.00 in
01:45 24.6 °F 19.3 °F 30.40 in WSW 2.0 mph 6.0 mph 80% 0.00 in
01:50 24.4 °F 19.4 °F 30.40 in West 3.0 mph 6.0 mph 81% 0.00 in
01:55 24.4 °F 19.4 °F 30.39 in West 3.0 mph 6.0 mph 81% 0.00 in
02:00 24.3 °F 19.3 °F 30.40 in WSW 2.0 mph 4.0 mph 81% 0.00 in
02:05 24.2 °F 19.2 °F 30.40 in West 1.0 mph 5.0 mph 81% 0.00 in
02:10 24.1 °F 19.4 °F 30.40 in West 2.0 mph 6.0 mph 82% 0.00 in
02:15 24.1 °F 19.4 °F 30.40 in WSW 2.0 mph 6.0 mph 82% 0.00 in
02:20 23.9 °F 19.2 °F 30.41 in WSW 2.0 mph 5.0 mph 82% 0.00 in
02:25 23.7 °F 19.0 °F 30.41 in West 2.0 mph 5.0 mph 82% 0.00 in
02:30 23.7 °F 19.3 °F 30.41 in West 2.0 mph 6.0 mph 83% 0.00 in
02:35 23.7 °F 19.3 °F 30.41 in WSW 1.0 mph 3.0 mph 83% 0.00 in
02:40 23.5 °F 19.1 °F 30.41 in WSW 1.0 mph 5.0 mph 83% 0.00 in
02:45 23.5 °F 19.1 °F 30.41 in WSW 2.0 mph 4.0 mph 83% 0.00 in
02:50 23.5 °F 19.1 °F 30.41 in WSW 2.0 mph 4.0 mph 83% 0.00 in
02:55 23.4 °F 19.3 °F 30.41 in West 2.0 mph 4.0 mph 84% 0.00 in
03:00 23.5 °F 19.4 °F 30.41 in West 2.0 mph 4.0 mph 84% 0.00 in
03:05 23.4 °F 19.3 °F 30.41 in WSW 3.0 mph 4.0 mph 84% 0.00 in
03:10 23.3 °F 19.2 °F 30.41 in WSW 1.0 mph 4.0 mph 84% 0.00 in
03:15 23.3 °F 19.2 °F 30.41 in West 1.0 mph 3.0 mph 84% 0.00 in
03:20 23.2 °F 19.1 °F 30.41 in WSW 2.0 mph 5.0 mph 84% 0.00 in
03:25 23.2 °F 19.1 °F 30.41 in WSW 2.0 mph 5.0 mph 84% 0.00 in
03:30 23.3 °F 19.2 °F 30.41 in West 1.0 mph 6.0 mph 84% 0.00 in
03:35 23.3 °F 19.2 °F 30.41 in West 1.0 mph 6.0 mph 84% 0.00 in
03:40 23.2 °F 19.1 °F 30.41 in WSW 3.0 mph 5.0 mph 84% 0.00 in
03:45 23.1 °F 19.3 °F 30.40 in WSW 1.0 mph 3.0 mph 85% 0.00 in
03:50 23.1 °F 19.3 °F 30.40 in WSW 2.0 mph 5.0 mph 85% 0.00 in
03:55 23.1 °F 19.3 °F 30.40 in WSW 2.0 mph 5.0 mph 85% 0.00 in
04:00 23.0 °F 19.2 °F 30.40 in WSW 2.0 mph 4.0 mph 85% 0.00 in
04:05 22.8 °F 19.0 °F 30.40 in WSW 2.0 mph 4.0 mph 85% 0.00 in
04:10 22.6 °F 18.8 °F 30.40 in Calm   3.0 mph 85% 0.00 in
04:15 22.4 °F 18.6 °F 30.40 in WSW 1.0 mph 2.0 mph 85% 0.00 in
04:20 22.2 °F 18.4 °F 30.40 in Calm   2.0 mph 85% 0.00 in
04:25 21.8 °F 18.0 °F 30.39 in WSW 1.0 mph 2.0 mph 85% 0.00 in
04:30 21.6 °F 18.1 °F 30.40 in WSW 1.0 mph 3.0 mph 86% 0.00 in
04:35 21.7 °F 18.2 °F 30.40 in WSW 1.0 mph 3.0 mph 86% 0.00 in
04:39 21.6 °F 18.3 °F 30.40 in Calm   2.0 mph 87% 0.00 in
04:45 21.7 °F 18.4 °F 30.40 in Calm     87% 0.00 in
04:50 21.7 °F 18.4 °F 30.40 in West 1.0 mph 3.0 mph 87% 0.00 in
04:54 21.6 °F 18.3 °F 30.41 in West 1.0 mph 3.0 mph 87% 0.00 in
05:00 21.5 °F 18.2 °F 30.41 in West 1.0 mph 3.0 mph 87% 0.00 in
05:05 21.3 °F 18.0 °F 30.41 in Calm   1.0 mph 87% 0.00 in
05:10 21.2 °F 17.9 °F 30.41 in Calm   1.0 mph 87% 0.00 in
05:15 21.3 °F 18.3 °F 30.41 in Calm   3.0 mph 88% 0.00 in
05:20 21.5 °F 18.5 °F 30.41 in Calm   3.0 mph 88% 0.00 in
05:24 21.5 °F 18.2 °F 30.41 in WSW 1.0 mph 3.0 mph 87% 0.00 in
05:30 21.5 °F 18.2 °F 30.41 in WSW 1.0 mph 3.0 mph 87% 0.00 in
05:34 21.5 °F 18.2 °F 30.41 in WSW 1.0 mph 3.0 mph 87% 0.00 in
05:39 21.4 °F 18.1 °F 30.42 in Calm   3.0 mph 87% 0.00 in
05:45 21.5 °F 18.2 °F 30.42 in West 1.0 mph 3.0 mph 87% 0.00 in
05:50 21.5 °F 18.2 °F 30.42 in West 1.0 mph 4.0 mph 87% 0.00 in
05:55 21.5 °F 18.2 °F 30.42 in Calm   3.0 mph 87% 0.00 in
05:59 21.5 °F 18.2 °F 30.42 in Calm   3.0 mph 87% 0.00 in
06:05 21.5 °F 18.2 °F 30.42 in Calm     87% 0.00 in
06:10 21.3 °F 18.0 °F 30.43 in Calm     87% 0.00 in
06:15 21.4 °F 18.1 °F 30.42 in Calm     87% 0.00 in
06:20 21.3 °F 18.0 °F 30.43 in Calm     87% 0.00 in
06:25 21.5 °F 18.2 °F 30.43 in Calm     87% 0.00 in
06:29 21.6 °F 18.3 °F 30.42 in Calm     87% 0.00 in
06:34 21.9 °F 18.6 °F 30.43 in Calm     87% 0.00 in
06:39 22.1 °F 18.8 °F 30.43 in Calm     87% 0.00 in
06:44 22.1 °F 18.8 °F 30.43 in Calm     87% 0.00 in
06:49 22.2 °F 18.9 °F 30.43 in Calm     87% 0.00 in
06:55 22.4 °F 19.1 °F 30.43 in Calm     87% 0.00 in
07:00 22.5 °F 19.2 °F 30.43 in West 1.0 mph 3.0 mph 87% 0.00 in
07:04 22.8 °F 19.5 °F 30.43 in West 1.0 mph 3.0 mph 87% 0.00 in
07:10 22.9 °F 19.3 °F 30.43 in West 1.0 mph 3.0 mph 86% 0.00 in
07:15 23.1 °F 19.5 °F 30.44 in West 1.0 mph 3.0 mph 86% 0.00 in
07:20 23.2 °F 19.6 °F 30.44 in Calm   2.0 mph 86% 0.00 in
07:25 23.3 °F 19.7 °F 30.44 in Calm   2.0 mph 86% 0.00 in
07:30 23.5 °F 19.9 °F 30.44 in WSW 1.0 mph 3.0 mph 86% 0.00 in
07:34 23.7 °F 19.9 °F 30.44 in WSW 1.0 mph 3.0 mph 85% 0.00 in
07:39 23.8 °F 19.9 °F 30.44 in Calm     85% 0.00 in
07:44 24.0 °F 20.1 °F 30.44 in Calm     85% 0.00 in
07:49 24.0 °F 20.1 °F 30.44 in WSW 1.0 mph 2.0 mph 85% 0.00 in
07:54 24.2 °F 20.1 °F 30.44 in West 1.0 mph 5.0 mph 84% 0.00 in
07:59 24.3 °F 20.2 °F 30.44 in West 1.0 mph 3.0 mph 84% 0.00 in
08:04 24.4 °F 20.3 °F 30.44 in West 2.0 mph 3.0 mph 84% 0.00 in
08:09 24.5 °F 20.4 °F 30.44 in West 2.0 mph 4.0 mph 84% 0.00 in
08:15 24.6 °F 20.2 °F 30.45 in West 2.0 mph 5.0 mph 83% 0.00 in
08:20 24.7 °F 20.3 °F 30.45 in West 2.0 mph 5.0 mph 83% 0.00 in
08:25 24.8 °F 20.7 °F 30.45 in West 1.0 mph 3.0 mph 84% 0.00 in
08:30 24.9 °F 20.5 °F 30.45 in West 1.0 mph 5.0 mph 83% 0.00 in
08:35 25.0 °F 20.6 °F 30.45 in West 2.0 mph 5.0 mph 83% 0.00 in
08:39 25.2 °F 21.0 °F 30.45 in Calm   1.0 mph 84% 0.00 in
08:44 25.4 °F 21.0 °F 30.45 in Calm   3.0 mph 83% 0.00 in
08:49 25.6 °F 21.2 °F 30.45 in NW 1.0 mph 2.0 mph 83% 0.00 in
08:54 25.7 °F 21.0 °F 30.45 in Calm   2.0 mph 82% 0.00 in
08:59 25.9 °F 21.2 °F 30.46 in NW 1.0 mph 2.0 mph 82% 0.00 in
09:05 26.1 °F 21.4 °F 30.46 in WNW 2.0 mph 4.0 mph 82% 0.00 in
09:09 26.1 °F 21.4 °F 30.46 in WNW 1.0 mph 4.0 mph 82% 0.00 in
09:14 26.4 °F 21.7 °F 30.46 in West 1.0 mph 4.0 mph 82% 0.00 in
09:19 26.6 °F 21.6 °F 30.46 in West 1.0 mph 4.0 mph 81% 0.00 in
09:25 27.1 °F 22.0 °F 30.47 in Calm   4.0 mph 81% 0.00 in
09:30 27.3 °F 22.2 °F 30.47 in WNW 1.0 mph 4.0 mph 81% 0.00 in
09:34 27.4 °F 22.0 °F 30.47 in Calm   3.0 mph 80% 0.00 in
09:39 27.6 °F 22.5 °F 30.47 in Calm   3.0 mph 81% 0.00 in
09:44 27.7 °F 22.3 °F 30.47 in WNW 1.0 mph 3.0 mph 80% 0.00 in
09:49 27.7 °F 22.0 °F 30.47 in WNW 2.0 mph 3.0 mph 79% 0.00 in
09:54 27.9 °F 22.2 °F 30.47 in WSW 2.0 mph 3.0 mph 79% 0.00 in
09:59 28.3 °F 22.3 °F 30.47 in WSW 1.0 mph 3.0 mph 78% 0.00 in
10:04 28.6 °F 22.3 °F 30.47 in WSW 2.0 mph 3.0 mph 77% 0.00 in
10:10 29.0 °F 22.7 °F 30.47 in WSW 3.0 mph 4.0 mph 77% 0.00 in
10:15 29.2 °F 22.3 °F 30.47 in WSW 3.0 mph 6.0 mph 75% 0.00 in
10:19 29.2 °F 21.6 °F 30.47 in WSW 3.0 mph 6.0 mph 73% 0.00 in
10:24 29.2 °F 21.3 °F 30.47 in WSW 2.0 mph 6.0 mph 72% 0.00 in
10:29 29.5 °F 22.2 °F 30.47 in WSW 3.0 mph 3.0 mph 74% 0.00 in
10:34 29.6 °F 22.0 °F 30.47 in West 4.0 mph 5.0 mph 73% 0.00 in
10:39 29.9 °F 22.6 °F 30.47 in NW 1.0 mph 5.0 mph 74% 0.00 in
10:45 29.7 °F 21.4 °F 30.47 in West 2.0 mph 5.0 mph 71% 0.00 in
10:49 30.4 °F 22.8 °F 30.46 in SW 3.0 mph 4.0 mph 73% 0.00 in
10:54 30.7 °F 22.7 °F 30.46 in West 2.0 mph 5.0 mph 72% 0.00 in
10:59 31.1 °F 22.8 °F 30.46 in West 3.0 mph 5.0 mph 71% 0.00 in
11:04 30.9 °F 22.3 °F 30.45 in NNW 2.0 mph 4.0 mph 70% 0.00 in
11:10 30.8 °F 21.8 °F 30.45 in WSW 4.0 mph 5.0 mph 69% 0.00 in
11:15 30.5 °F 21.5 °F 30.45 in SW 3.0 mph 6.0 mph 69% 0.00 in
11:19 30.2 °F 21.2 °F 30.45 in SW 3.0 mph 6.0 mph 69% 0.00 in
11:24 30.4 °F 21.4 °F 30.45 in SW 3.0 mph 6.0 mph 69% 0.00 in
11:29 30.3 °F 21.0 °F 30.45 in SW 3.0 mph 7.0 mph 68% 0.00 in
11:34 30.6 °F 21.6 °F 30.45 in SW 3.0 mph 7.0 mph 69% 0.00 in
11:40 31.2 °F 21.9 °F 30.44 in WSW 3.0 mph 8.0 mph 68% 0.00 in
11:44 31.9 °F 22.5 °F 30.44 in West 2.0 mph 5.0 mph 68% 0.00 in
11:49 31.0 °F 21.3 °F 30.44 in West 2.0 mph 7.0 mph 67% 0.00 in
11:54 30.9 °F 21.6 °F 30.44 in NNW 2.0 mph 5.0 mph 68% 0.00 in
11:59 31.1 °F 21.1 °F 30.44 in NNW 1.0 mph 5.0 mph 66% 0.00 in
12:04 31.1 °F 21.8 °F 30.44 in WNW 4.0 mph 4.0 mph 68% 0.00 in
12:09 31.4 °F 21.7 °F 30.44 in NNW 1.0 mph 4.0 mph 67% 0.00 in
12:14 31.2 °F 21.2 °F 30.44 in WNW 2.0 mph 4.0 mph 66% 0.00 in
12:19 31.1 °F 21.4 °F 30.43 in NW 2.0 mph 5.0 mph 67% 0.00 in
12:24 31.1 °F 21.1 °F 30.43 in NW 2.0 mph 6.0 mph 66% 0.00 in
12:29 31.2 °F 21.5 °F 30.43 in NW 3.0 mph 6.0 mph 67% 0.00 in
12:34 31.1 °F 21.4 °F 30.43 in WNW 3.0 mph 7.0 mph 67% 0.00 in
12:40 31.0 °F 21.0 °F 30.42 in NW 2.0 mph 8.0 mph 66% 0.00 in
12:45 31.1 °F 21.4 °F 30.42 in WSW 2.0 mph 5.0 mph 67% 0.00 in
12:50 30.9 °F 21.2 °F 30.42 in West 2.0 mph 4.0 mph 67% 0.00 in
12:54 31.4 °F 21.7 °F 30.42 in WNW 2.0 mph 5.0 mph 67% 0.00 in
12:59 31.4 °F 21.0 °F 30.42 in NNW 4.0 mph 6.0 mph 65% 0.01 in
13:04 31.4 °F 21.0 °F 30.42 in WNW 2.0 mph 5.0 mph 65% 0.01 in
13:09 31.1 °F 21.1 °F 30.42 in West 1.0 mph 3.0 mph 66% 0.01 in
13:14 31.4 °F 21.3 °F 30.42 in West 4.0 mph 5.0 mph 66% 0.01 in
13:19 31.1 °F 21.1 °F 30.42 in WNW 3.0 mph 5.0 mph 66% 0.01 in
13:24 31.3 °F 21.6 °F 30.42 in NW 2.0 mph 5.0 mph 67% 0.01 in
13:29 31.1 °F 20.7 °F 30.42 in WNW 3.0 mph 6.0 mph 65% 0.01 in
13:34 31.1 °F 21.1 °F 30.42 in WNW 3.0 mph 6.0 mph 66% 0.01 in
13:39 31.2 °F 21.2 °F 30.42 in West 3.0 mph 6.0 mph 66% 0.01 in
13:40 31.2 °F 21.2 °F 30.42 in WSW 6.0 mph 6.0 mph 66% 0.01 in
13:49 30.8 °F 20.8 °F 30.42 in WSW 5.0 mph 6.0 mph 66% 0.01 in
13:54 30.7 °F 20.7 °F 30.42 in West 3.0 mph 7.0 mph 66% 0.01 in
13:59 30.7 °F 21.0 °F 30.42 in West 3.0 mph 7.0 mph 67% 0.00 in
14:04 30.7 °F 21.7 °F 30.42 in WSW 3.0 mph 5.0 mph 69% 0.00 in
14:09 30.8 °F 22.2 °F 30.42 in WSW 2.0 mph 5.0 mph 70% 0.00 in
14:14 31.0 °F 22.0 °F 30.42 in WNW 4.0 mph 5.0 mph 69% 0.00 in
14:19 30.8 °F 21.8 °F 30.42 in WSW 4.0 mph 8.0 mph 69% 0.00 in
14:24 30.7 °F 21.7 °F 30.42 in WSW 4.0 mph 8.0 mph 69% 0.00 in
14:29 30.8 °F 21.5 °F 30.42 in WSW 3.0 mph 7.0 mph 68% 0.00 in
14:34 30.8 °F 21.5 °F 30.42 in West 3.0 mph 7.0 mph 68% 0.00 in
14:39 30.9 °F 21.9 °F 30.42 in WSW 3.0 mph 6.0 mph 69% 0.00 in
14:44 30.7 °F 22.1 °F 30.42 in WSW 4.0 mph 5.0 mph 70% 0.00 in
14:49 30.4 °F 21.8 °F 30.42 in SSE 8.0 mph 9.0 mph 70% 0.00 in
14:54 30.3 °F 22.0 °F 30.42 in SSW 3.0 mph 7.0 mph 71% 0.00 in
14:59 30.3 °F 21.7 °F 30.42 in SW 4.0 mph 8.0 mph 70% 0.00 in
15:04 30.3 °F 22.0 °F 30.42 in SW 4.0 mph 7.0 mph 71% 0.00 in
15:09 30.3 °F 21.7 °F 30.42 in SSW 7.0 mph 8.0 mph 70% 0.00 in
15:14 30.3 °F 22.0 °F 30.42 in SSE 4.0 mph 7.0 mph 71% 0.00 in
15:19 30.1 °F 22.2 °F 30.42 in SSW 7.0 mph 8.0 mph 72% 0.00 in
15:24 30.3 °F 22.4 °F 30.42 in SSW 7.0 mph 7.0 mph 72% 0.00 in
15:29 30.3 °F 22.0 °F 30.42 in SW 5.0 mph 8.0 mph 71% 0.00 in
15:34 30.2 °F 22.3 °F 30.41 in SW 5.0 mph 8.0 mph 72% 0.00 in
15:39 30.1 °F 21.8 °F 30.42 in SSW 4.0 mph 8.0 mph 71% 0.00 in
15:44 30.1 °F 22.2 °F 30.42 in SW 4.0 mph 8.0 mph 72% 0.00 in
15:49 30.1 °F 21.8 °F 30.41 in SW 4.0 mph 8.0 mph 71% 0.00 in
15:54 30.0 °F 21.7 °F 30.42 in SW 4.0 mph 6.0 mph 71% 0.00 in
15:59 30.0 °F 21.4 °F 30.42 in SW 4.0 mph 7.0 mph 70% 0.00 in
16:04 29.9 °F 21.6 °F 30.42 in SW 3.0 mph 7.0 mph 71% 0.00 in
16:09 29.9 °F 21.0 °F 30.41 in SSW 2.0 mph 5.0 mph 69% 0.00 in
16:14 29.8 °F 21.2 °F 30.41 in SE 3.0 mph 6.0 mph 70% 0.00 in
16:19 29.8 °F 21.2 °F 30.42 in SSW 5.0 mph 6.0 mph 70% 0.00 in
16:24 30.0 °F 21.1 °F 30.42 in WNW 1.0 mph 5.0 mph 69% 0.00 in
16:29 30.2 °F 21.2 °F 30.42 in South 4.0 mph 7.0 mph 69% 0.00 in
16:34 30.2 °F 21.2 °F 30.42 in SW 3.0 mph 8.0 mph 69% 0.00 in
16:39 30.1 °F 21.5 °F 30.42 in SW 3.0 mph 8.0 mph 70% 0.00 in
16:44 29.9 °F 21.3 °F 30.42 in SW 3.0 mph 7.0 mph 70% 0.00 in
16:49 29.7 °F 20.8 °F 30.41 in SSW 2.0 mph 5.0 mph 69% 0.00 in
16:54 29.4 °F 21.2 °F 30.41 in SW 2.0 mph 5.0 mph 71% 0.00 in
16:59 29.1 °F 21.2 °F 30.42 in SW 1.0 mph 6.0 mph 72% 0.00 in
17:04 28.8 °F 21.2 °F 30.42 in SW 3.0 mph 6.0 mph 73% 0.00 in
17:09 28.6 °F 21.4 °F 30.42 in SW 3.0 mph 6.0 mph 74% 0.00 in
17:14 28.4 °F 21.2 °F 30.42 in SSW 3.0 mph 6.0 mph 74% 0.00 in
17:19 28.2 °F 21.3 °F 30.41 in SW 1.0 mph 4.0 mph 75% 0.00 in
17:24 27.9 °F 21.0 °F 30.42 in SW 2.0 mph 3.0 mph 75% 0.00 in
17:29 27.7 °F 21.1 °F 30.42 in Calm   5.0 mph 76% 0.00 in
17:34 27.4 °F 21.1 °F 30.42 in WSW 1.0 mph 5.0 mph 77% 0.00 in
17:39 27.2 °F 20.9 °F 30.42 in Calm   2.0 mph 77% 0.00 in
17:44 26.9 °F 21.0 °F 30.42 in Calm   2.0 mph 78% 0.00 in
17:49 26.7 °F 20.8 °F 30.42 in Calm   1.0 mph 78% 0.00 in
17:54 26.5 °F 20.9 °F 30.42 in Calm     79% 0.00 in
17:59 26.3 °F 20.4 °F 30.42 in Calm     78% 0.00 in
18:04 25.6 °F 20.0 °F 30.43 in Calm     79% 0.00 in
18:09 25.4 °F 20.4 °F 30.43 in Calm     81% 0.00 in
18:14 25.4 °F 20.1 °F 30.42 in Calm     80% 0.00 in
18:19 24.9 °F 19.6 °F 30.43 in Calm     80% 0.00 in
18:24 24.7 °F 20.0 °F 30.43 in Calm     82% 0.00 in
18:29 24.5 °F 19.8 °F 30.43 in Calm     82% 0.00 in
18:34 24.2 °F 19.8 °F 30.43 in Calm     83% 0.00 in
18:39 24.1 °F 19.7 °F 30.43 in Calm     83% 0.00 in
18:44 23.5 °F 19.1 °F 30.43 in Calm     83% 0.00 in
18:49 23.4 °F 19.0 °F 30.42 in Calm     83% 0.00 in
18:54 23.3 °F 19.2 °F 30.42 in Calm     84% 0.00 in
18:59 23.2 °F 19.1 °F 30.42 in Calm     84% 0.00 in
19:04 22.9 °F 18.8 °F 30.41 in Calm     84% 0.00 in
19:09 22.7 °F 18.6 °F 30.42 in Calm     84% 0.00 in
19:14 22.7 °F 18.6 °F 30.42 in Calm     84% 0.00 in
19:19 22.5 °F 18.4 °F 30.42 in Calm     84% 0.00 in
19:24 22.6 °F 18.8 °F 30.42 in Calm     85% 0.00 in
19:29 22.3 °F 18.2 °F 30.42 in Calm     84% 0.00 in
19:34 22.2 °F 18.4 °F 30.42 in Calm     85% 0.00 in
19:39 22.3 °F 18.5 °F 30.42 in Calm     85% 0.00 in
19:44 22.5 °F 18.7 °F 30.41 in Calm     85% 0.00 in
19:49 22.7 °F 19.1 °F 30.41 in Calm     86% 0.00 in
19:54 22.9 °F 19.1 °F 30.41 in Calm     85% 0.00 in
19:59 22.7 °F 18.6 °F 30.41 in Calm     84% 0.00 in
20:04 22.3 °F 18.2 °F 30.41 in Calm     84% 0.00 in
20:09 22.3 °F 18.5 °F 30.42 in Calm     85% 0.00 in
20:14 22.2 °F 18.4 °F 30.42 in Calm     85% 0.00 in
20:19 22.0 °F 18.2 °F 30.42 in Calm     85% 0.00 in
20:24 21.8 °F 18.0 °F 30.42 in Calm     85% 0.00 in
20:29 21.8 °F 18.3 °F 30.41 in Calm     86% 0.00 in
20:34 22.4 °F 19.1 °F 30.41 in Calm     87% 0.00 in
20:39 22.2 °F 18.7 °F 30.41 in Calm     86% 0.00 in
20:44 21.7 °F 18.2 °F 30.41 in Calm     86% 0.00 in
20:49 21.7 °F 18.2 °F 30.41 in Calm     86% 0.00 in
20:54 22.0 °F 18.5 °F 30.41 in Calm     86% 0.00 in
20:59 22.1 °F 18.6 °F 30.41 in Calm     86% 0.00 in
21:04 21.8 °F 18.3 °F 30.42 in Calm     86% 0.00 in
21:10 21.9 °F 18.6 °F 30.41 in Calm     87% 0.00 in
21:19 21.9 °F 18.6 °F 30.42 in Calm     87% 0.00 in
21:24 21.7 °F 18.2 °F 30.42 in Calm     86% 0.00 in
21:29 21.5 °F 18.2 °F 30.42 in Calm     87% 0.00 in
21:34 21.5 °F 18.2 °F 30.42 in Calm     87% 0.00 in
21:39 21.3 °F 18.0 °F 30.42 in Calm     87% 0.00 in
21:44 21.5 °F 18.2 °F 30.42 in Calm     87% 0.00 in
21:49 21.5 °F 18.5 °F 30.42 in Calm     88% 0.00 in
21:54 21.5 °F 18.2 °F 30.42 in Calm     87% 0.00 in
21:59 21.6 °F 18.6 °F 30.42 in Calm     88% 0.00 in
22:04 21.7 °F 18.7 °F 30.42 in Calm     88% 0.00 in
22:09 21.7 °F 18.4 °F 30.42 in Calm     87% 0.00 in
22:14 21.6 °F 18.3 °F 30.41 in Calm     87% 0.00 in
22:19 21.0 °F 17.5 °F 30.41 in Calm     86% 0.00 in
22:24 20.8 °F 17.5 °F 30.41 in Calm   3.0 mph 87% 0.00 in
22:29 21.1 °F 18.1 °F 30.41 in South 1.0 mph 4.0 mph 88% 0.00 in
22:34 21.4 °F 18.4 °F 30.41 in Calm   2.0 mph 88% 0.00 in
22:39 21.5 °F 18.5 °F 30.41 in Calm     88% 0.00 in
22:44 21.5 °F 18.2 °F 30.41 in Calm   2.0 mph 87% 0.00 in
22:49 21.5 °F 18.2 °F 30.41 in Calm   3.0 mph 87% 0.00 in
22:54 21.2 °F 17.9 °F 30.41 in South 1.0 mph 3.0 mph 87% 0.00 in
22:59 21.1 °F 17.8 °F 30.41 in Calm   1.0 mph 87% 0.00 in
23:04 20.8 °F 17.5 °F 30.41 in Calm   1.0 mph 87% 0.00 in
23:09 20.6 °F 17.3 °F 30.41 in Calm     87% 0.00 in
23:14 20.2 °F 17.0 °F 30.41 in Calm     87% 0.00 in
23:19 20.1 °F 16.9 °F 30.41 in Calm   1.0 mph 87% 0.00 in
23:24 20.1 °F 16.9 °F 30.41 in Calm   2.0 mph 87% 0.00 in
23:29 20.1 °F 17.1 °F 30.41 in Calm     88% 0.00 in
23:34 20.1 °F 17.1 °F 30.41 in Calm     88% 0.00 in
23:39 20.2 °F 17.2 °F 30.41 in Calm     88% 0.00 in
23:44 20.1 °F 17.1 °F 30.41 in Calm     88% 0.00 in
23:49 20.0 °F 17.0 °F 30.41 in Calm     88% 0.00 in
23:54 20.4 °F 17.4 °F 30.41 in Calm     88% 0.00 in
23:59 20.4 °F 17.4 °F 30.40 in Calm     88% 0.00 in
Buffalo, New York, USA
Compliments of Weather Underground - 2.5 mb